createdAt,value
2023-11-15T00:01:26.216Z,2.27
2023-11-15T00:03:53.947Z,2.50
2023-11-15T00:06:22.039Z,2.10
2023-11-15T00:08:49.811Z,2.50
2023-11-15T00:11:19.112Z,2.20
2023-11-15T00:13:47.001Z,2.60
2023-11-15T00:16:16.825Z,2.50
2023-11-15T00:18:44.812Z,2.13
2023-11-15T00:21:12.796Z,2.40
2023-11-15T00:23:40.528Z,2.20
2023-11-15T00:26:08.407Z,2.10
2023-11-15T00:28:40.190Z,2.10
2023-11-15T00:31:08.011Z,1.77
2023-11-15T00:33:38.375Z,2.83
2023-11-15T00:36:06.857Z,2.03
2023-11-15T00:38:35.805Z,1.80
2023-11-15T00:41:04.840Z,2.07
2023-11-15T00:43:33.088Z,2.30
2023-11-15T00:46:00.891Z,2.20
2023-11-15T00:48:29.004Z,3.00
2023-11-15T00:50:58.098Z,3.67
2023-11-15T00:53:26.889Z,3.50
2023-11-15T00:55:54.615Z,3.93
2023-11-15T00:58:23.305Z,4.57
2023-11-15T01:00:56.128Z,4.43
2023-11-15T01:03:28.231Z,4.03
2023-11-15T01:05:56.881Z,4.40
2023-11-15T01:08:26.010Z,4.93
2023-11-15T01:10:53.838Z,5.20
2023-11-15T01:13:22.474Z,5.10
2023-11-15T01:15:52.007Z,5.73
2023-11-15T01:18:19.747Z,5.33
2023-11-15T01:20:47.608Z,5.60
2023-11-15T01:23:16.341Z,6.30
2023-11-15T01:25:45.587Z,5.17
2023-11-15T01:28:13.267Z,5.90
2023-11-15T01:30:40.890Z,5.83
2023-11-15T01:33:08.755Z,6.47
2023-11-15T01:35:37.189Z,6.17
2023-11-15T01:38:04.957Z,6.60
2023-11-15T01:40:35.417Z,6.17
2023-11-15T01:43:04.616Z,6.03
2023-11-15T01:45:32.468Z,6.07
2023-11-15T01:48:01.679Z,6.03
2023-11-15T01:50:29.882Z,6.27
2023-11-15T01:52:58.231Z,6.23
2023-11-15T01:55:25.976Z,6.27
2023-11-15T01:57:54.919Z,6.13
2023-11-15T02:00:24.655Z,6.33
2023-11-15T02:02:52.353Z,6.70
2023-11-15T02:05:20.160Z,7.00
2023-11-15T02:07:48.136Z,6.80
2023-11-15T02:10:16.190Z,7.80
2023-11-15T02:12:44.404Z,6.60
2023-11-15T02:15:15.031Z,6.57
2023-11-15T02:17:44.511Z,6.67
2023-11-15T02:20:14.148Z,6.67
2023-11-15T02:22:46.832Z,7.00
2023-11-15T02:25:16.219Z,6.07
2023-11-15T02:27:44.006Z,5.83
2023-11-15T02:30:12.421Z,6.70
2023-11-15T02:32:41.091Z,7.07
2023-11-15T02:39:02.145Z,6.20
2023-11-15T02:41:32.608Z,6.73
2023-11-15T02:44:00.326Z,6.73
2023-11-15T02:46:27.998Z,6.33
2023-11-15T02:48:55.796Z,7.27
2023-11-15T02:51:23.502Z,7.13
2023-11-15T02:53:51.201Z,6.47
2023-11-15T02:56:19.595Z,6.67
2023-11-15T02:58:48.926Z,6.67
2023-11-15T03:01:17.463Z,7.43
2023-11-15T03:03:45.544Z,6.30
2023-11-15T03:06:13.601Z,6.60
2023-11-15T03:08:41.289Z,7.10
2023-11-15T03:11:09.568Z,6.50
2023-11-15T03:13:37.355Z,7.43
2023-11-15T03:16:07.082Z,7.30
2023-11-15T03:18:35.039Z,7.70
2023-11-15T03:21:04.019Z,6.17
2023-11-15T03:23:31.787Z,7.70
2023-11-15T03:26:00.114Z,7.53
2023-11-15T03:28:27.845Z,7.13
2023-11-15T03:30:55.467Z,6.30
2023-11-15T03:33:25.059Z,6.80
2023-11-15T03:35:52.841Z,6.87
2023-11-15T03:38:20.550Z,6.87
2023-11-15T03:40:48.880Z,6.60
2023-11-15T03:43:16.483Z,6.87
2023-11-15T03:45:44.286Z,7.47
2023-11-15T03:48:12.323Z,6.60
2023-11-15T03:50:41.578Z,6.70
2023-11-15T03:53:09.464Z,6.10
2023-11-15T03:55:37.252Z,6.97
2023-11-15T03:58:05.253Z,6.63
2023-11-15T04:00:32.910Z,7.03
2023-11-15T04:03:01.190Z,6.47
2023-11-15T04:05:30.572Z,6.70
2023-11-15T04:08:00.114Z,6.23
2023-11-15T04:10:27.899Z,6.57
2023-11-15T04:12:55.849Z,7.23
2023-11-15T04:15:24.525Z,7.07
2023-11-15T04:17:52.483Z,7.40
2023-11-15T04:20:20.119Z,6.60
2023-11-15T04:22:47.799Z,6.80
2023-11-15T04:25:17.784Z,6.20
2023-11-15T04:27:45.438Z,6.80
2023-11-15T04:30:13.825Z,6.13
2023-11-15T04:32:41.627Z,6.90
2023-11-15T04:35:09.525Z,5.93
2023-11-15T04:37:37.251Z,6.73
2023-11-15T04:40:07.688Z,6.20
2023-11-15T04:42:36.832Z,6.50
2023-11-15T04:45:04.824Z,6.37
2023-11-15T04:47:32.864Z,6.67
2023-11-15T04:50:01.525Z,7.10
2023-11-15T04:52:29.157Z,6.23
2023-11-15T04:54:56.858Z,6.10
2023-11-15T04:57:26.976Z,6.27
2023-11-15T04:59:57.003Z,5.77
2023-11-15T05:02:25.206Z,5.83
2023-11-15T05:04:53.713Z,5.93
2023-11-15T05:07:23.680Z,5.90
2023-11-15T05:09:51.504Z,6.27
2023-11-15T05:12:19.101Z,5.80
2023-11-15T05:14:47.456Z,6.10
2023-11-15T05:17:16.689Z,6.13
2023-11-15T05:19:44.339Z,5.67
2023-11-15T05:22:12.115Z,5.50
2023-11-15T05:24:42.120Z,5.60
2023-11-15T05:27:10.951Z,5.33
2023-11-15T05:29:38.845Z,5.50
2023-11-15T05:32:06.709Z,5.77
2023-11-15T05:34:35.740Z,5.60
2023-11-15T05:37:03.791Z,5.87
2023-11-15T05:39:32.429Z,5.73
2023-11-15T05:42:00.835Z,5.53
2023-11-15T05:44:29.904Z,5.57
2023-11-15T05:46:57.571Z,5.80
2023-11-15T05:49:25.204Z,5.80
2023-11-15T05:51:54.860Z,5.80
2023-11-15T05:54:22.570Z,4.97
2023-11-15T05:56:50.360Z,4.77
2023-11-15T05:59:18.021Z,4.17
2023-11-15T06:01:46.073Z,4.43
2023-11-15T06:04:13.758Z,3.70
2023-11-15T06:06:41.757Z,4.03
2023-11-15T06:09:14.835Z,4.67
2023-11-15T06:11:43.452Z,4.00
2023-11-15T06:14:11.379Z,3.97
2023-11-15T06:16:39.709Z,4.07
2023-11-15T06:19:08.825Z,4.17
2023-11-15T06:21:36.588Z,3.70
2023-11-15T06:24:05.808Z,3.93
2023-11-15T06:26:38.711Z,3.90
2023-11-15T06:29:06.646Z,4.07
2023-11-15T06:31:37.233Z,4.03
2023-11-15T06:34:06.475Z,4.00
2023-11-15T06:36:36.043Z,4.40
2023-11-15T06:39:06.789Z,3.93
2023-11-15T06:41:35.698Z,4.20
2023-11-15T06:44:06.965Z,4.40
2023-11-15T06:46:35.681Z,4.33
2023-11-15T06:49:03.385Z,4.80
2023-11-15T07:06:41.457Z,5.00
2023-11-15T07:09:10.421Z,4.60
2023-11-15T07:11:38.182Z,4.50
2023-11-15T07:14:11.622Z,4.60
2023-11-15T07:16:39.386Z,4.80
2023-11-15T07:19:07.520Z,4.93
2023-11-15T07:21:35.181Z,4.87
2023-11-15T07:24:04.372Z,5.03
2023-11-15T07:26:36.426Z,4.87
2023-11-15T07:29:06.002Z,5.03
2023-11-15T07:31:33.679Z,4.97
2023-11-15T07:34:02.233Z,4.83
2023-11-15T07:36:30.667Z,4.77
2023-11-15T07:38:59.073Z,5.43
2023-11-15T07:41:28.534Z,4.83
2023-11-15T07:43:56.542Z,4.70
2023-11-15T07:46:25.835Z,4.60
2023-11-15T07:48:53.942Z,4.70
2023-11-15T07:51:21.591Z,5.67
2023-11-15T07:53:50.815Z,4.57
2023-11-15T07:56:20.199Z,4.93
2023-11-15T07:58:50.766Z,4.90
2023-11-15T08:01:18.466Z,5.20
2023-11-15T08:03:46.391Z,4.87
2023-11-15T08:06:15.875Z,5.30
2023-11-15T08:08:44.017Z,5.63
2023-11-15T08:11:12.685Z,5.30
2023-11-15T08:13:40.535Z,5.53
2023-11-15T08:16:13.796Z,4.80
2023-11-15T08:18:43.361Z,4.83
2023-11-15T08:21:11.616Z,5.07
2023-11-15T08:23:39.326Z,5.40
2023-11-15T08:26:08.692Z,5.57
2023-11-15T08:28:36.266Z,5.53
2023-11-15T08:31:04.153Z,5.37
2023-11-15T08:33:33.326Z,4.67
2023-11-15T08:36:01.100Z,5.40
2023-11-15T08:38:28.842Z,5.40
2023-11-15T08:40:57.010Z,5.10
2023-11-15T08:43:24.740Z,4.90
2023-11-15T08:45:52.639Z,5.50
2023-11-15T08:48:21.323Z,5.27
2023-11-15T08:50:50.532Z,4.83
2023-11-15T08:53:19.864Z,5.07
2023-11-15T08:55:47.498Z,4.93
2023-11-15T08:58:15.706Z,5.30
2023-11-15T09:00:45.367Z,4.87
2023-11-15T09:03:13.234Z,5.00
2023-11-15T09:05:45.151Z,5.10
2023-11-15T09:08:15.275Z,5.00
2023-11-15T09:10:43.198Z,4.90
2023-11-15T09:13:10.931Z,5.53
2023-11-15T09:15:38.822Z,5.07
2023-11-15T09:18:07.665Z,5.30
2023-11-15T09:20:36.026Z,5.63
2023-11-15T09:23:10.889Z,5.03
2023-11-15T09:25:45.241Z,4.77
2023-11-15T09:28:13.595Z,5.47
2023-11-15T09:30:44.021Z,5.00
2023-11-15T09:33:15.133Z,4.60
2023-11-15T09:35:52.070Z,4.33
2023-11-15T09:38:22.985Z,4.37
2023-11-15T10:12:02.500Z,4.53
2023-11-15T10:18:33.528Z,3.67
2023-11-15T10:21:08.669Z,3.83
2023-11-15T10:23:38.978Z,3.47
2023-11-15T10:26:10.172Z,3.53
2023-11-15T10:28:40.790Z,3.73
2023-11-15T10:31:13.814Z,3.70
2023-11-15T10:33:44.638Z,4.10
2023-11-15T10:36:17.657Z,3.70
2023-11-15T10:38:46.415Z,4.00
2023-11-15T10:41:18.844Z,4.23
2023-11-15T10:43:50.963Z,3.57
2023-11-15T10:46:20.106Z,3.10
2023-11-15T10:48:50.849Z,3.87
2023-11-15T10:51:23.054Z,3.80
2023-11-15T10:53:51.490Z,4.07
2023-11-15T10:56:20.668Z,3.30
2023-11-15T10:58:51.333Z,4.03
2023-11-15T11:01:19.658Z,4.00
2023-11-15T11:03:50.342Z,4.07
2023-11-15T11:06:21.538Z,3.60
2023-11-15T11:08:55.049Z,3.50
2023-11-15T11:11:24.481Z,3.77
2023-11-15T11:14:10.808Z,4.10
2023-11-15T11:16:41.382Z,3.33
2023-11-15T11:19:10.554Z,3.80
2023-11-15T11:21:57.037Z,3.63
2023-11-15T11:24:24.853Z,3.50
2023-11-15T11:26:53.699Z,3.00
2023-11-15T11:29:21.348Z,3.60
2023-11-15T11:32:18.289Z,3.50
2023-11-15T11:35:08.764Z,3.40
2023-11-15T11:37:41.247Z,3.43
2023-11-15T11:40:10.382Z,3.53
2023-11-15T11:42:38.075Z,3.53
2023-11-15T11:45:06.795Z,3.57
2023-11-15T11:47:41.773Z,3.60
2023-11-15T11:50:10.712Z,3.50
2023-11-15T11:52:40.750Z,3.40
2023-11-15T11:55:09.604Z,3.70
2023-11-15T11:57:37.218Z,3.37
2023-11-15T12:00:13.400Z,3.80
2023-11-15T12:02:44.174Z,3.53
2023-11-15T12:05:13.121Z,3.23
2023-11-15T12:07:43.681Z,3.63
2023-11-15T12:10:13.749Z,3.83
2023-11-15T12:12:42.025Z,3.30
2023-11-15T12:15:10.009Z,3.23
2023-11-15T12:17:40.883Z,2.80
2023-11-15T12:20:11.762Z,2.77
2023-11-15T12:22:41.659Z,3.13
2023-11-15T12:25:10.746Z,3.10
2023-11-15T12:27:39.677Z,3.27
2023-11-15T12:30:08.704Z,3.43
2023-11-15T12:32:37.711Z,3.90
2023-11-15T12:35:06.633Z,3.30
2023-11-15T12:37:36.094Z,3.23
2023-11-15T12:40:03.973Z,3.37
2023-11-15T12:42:32.277Z,3.77
2023-11-15T12:45:00.840Z,3.07
2023-11-15T12:47:28.633Z,3.40
2023-11-15T12:49:56.424Z,3.20
2023-11-15T12:52:35.178Z,2.80
2023-11-15T12:55:06.332Z,3.13
2023-11-15T12:57:50.891Z,3.07
2023-11-15T13:00:31.532Z,3.00
2023-11-15T13:02:59.612Z,2.97
2023-11-15T13:05:27.582Z,3.10
2023-11-15T13:07:55.204Z,3.10
2023-11-15T13:10:24.220Z,3.43
2023-11-15T13:12:51.838Z,3.30
2023-11-15T13:15:20.008Z,3.73
2023-11-15T13:17:47.760Z,3.10
2023-11-15T13:20:16.728Z,2.90
2023-11-15T13:22:45.528Z,3.00
2023-11-15T13:25:13.293Z,3.43
2023-11-15T13:27:42.375Z,3.60
2023-11-15T13:30:10.488Z,3.43
2023-11-15T13:32:38.188Z,3.20
2023-11-15T13:35:08.173Z,3.27
2023-11-15T13:37:36.347Z,3.43
2023-11-15T13:40:05.113Z,3.00
2023-11-15T13:42:34.202Z,3.20
2023-11-15T13:45:04.272Z,3.20
2023-11-15T13:47:32.028Z,3.03
2023-11-15T13:50:00.914Z,3.23
2023-11-15T13:52:29.017Z,3.27
2023-11-15T13:54:56.814Z,3.17
2023-11-15T13:57:24.577Z,3.43
2023-11-15T13:59:52.238Z,3.03
2023-11-15T14:02:24.937Z,2.80
2023-11-15T14:04:52.643Z,3.10
2023-11-15T14:07:20.451Z,3.07
2023-11-15T14:09:48.204Z,3.60
2023-11-15T14:12:15.876Z,3.00
2023-11-15T14:14:44.268Z,2.50
2023-11-15T14:17:12.485Z,2.83
2023-11-15T14:19:41.572Z,2.93
2023-11-15T14:22:09.215Z,3.23
2023-11-15T14:24:36.909Z,2.80
2023-11-15T14:27:05.265Z,2.80
2023-11-15T14:29:33.053Z,2.70
2023-11-15T14:32:02.095Z,2.63
2023-11-15T14:34:30.470Z,2.63
2023-11-15T14:36:59.633Z,2.30
2023-11-15T14:39:31.463Z,2.63
2023-11-15T14:42:00.285Z,2.90
2023-11-15T14:44:28.043Z,2.57
2023-11-15T14:46:55.663Z,2.50
2023-11-15T14:49:23.585Z,2.80
2023-11-15T14:51:59.912Z,2.53
2023-11-15T14:54:31.298Z,2.50
2023-11-15T14:56:59.572Z,2.57
2023-11-15T14:59:27.606Z,2.50
2023-11-15T15:01:55.406Z,2.70
2023-11-15T15:04:24.466Z,2.33
2023-11-15T15:06:52.516Z,2.50
2023-11-15T15:09:20.553Z,2.67
2023-11-15T15:11:49.738Z,2.27
2023-11-15T15:14:18.504Z,2.70
2023-11-15T15:16:46.719Z,2.33
2023-11-15T15:19:14.410Z,2.90
2023-11-15T15:21:42.883Z,2.43
2023-11-15T15:24:11.354Z,2.70
2023-11-15T15:26:39.051Z,2.27
2023-11-15T15:29:15.210Z,2.30
2023-11-15T15:31:49.693Z,2.10
2023-11-15T15:34:17.390Z,2.00
2023-11-15T15:36:46.008Z,2.30
2023-11-15T15:39:13.671Z,2.57
2023-11-15T15:41:41.418Z,2.60
2023-11-15T15:44:11.426Z,2.43
2023-11-15T15:46:39.111Z,2.37
2023-11-15T15:49:06.974Z,2.67
2023-11-15T15:51:34.731Z,2.27
2023-11-15T15:54:02.429Z,2.20
2023-11-15T15:56:30.572Z,2.50
2023-11-15T15:58:58.282Z,2.67
2023-11-15T16:01:30.582Z,2.60
2023-11-15T16:03:58.337Z,2.50
2023-11-15T16:06:26.043Z,2.50
2023-11-15T16:08:53.706Z,2.73
2023-11-15T16:11:22.273Z,5.97
2023-11-15T16:13:50.138Z,2.93
2023-11-15T16:16:18.182Z,2.60
2023-11-15T16:18:47.685Z,2.53
2023-11-15T16:21:15.357Z,3.90
2023-11-15T16:23:43.218Z,2.73
2023-11-15T16:26:11.389Z,2.73
2023-11-15T16:28:38.965Z,2.53
2023-11-15T16:31:07.245Z,2.40
2023-11-15T16:33:35.674Z,2.43
2023-11-15T16:36:05.054Z,2.20
2023-11-15T16:38:32.711Z,2.40
2023-11-15T16:41:00.511Z,3.00
2023-11-15T16:43:28.663Z,3.77
2023-11-15T16:45:56.298Z,3.30
2023-11-15T16:48:24.104Z,3.60
2023-11-15T16:50:52.132Z,2.40
2023-11-15T16:53:21.348Z,3.13
2023-11-15T16:55:49.004Z,2.97
2023-11-15T16:58:16.866Z,2.80
2023-11-15T17:00:46.535Z,3.23
2023-11-15T17:03:14.307Z,5.97
2023-11-15T17:05:42.000Z,5.40
2023-11-15T17:08:09.797Z,3.80
2023-11-15T17:10:38.782Z,3.97
2023-11-15T17:13:06.522Z,4.30
2023-11-15T17:15:34.460Z,4.90
2023-11-15T17:18:03.179Z,5.87
2023-11-15T17:20:30.848Z,5.20
2023-11-15T17:22:58.599Z,9.93
2023-11-15T17:25:27.129Z,6.23
2023-11-15T17:27:57.796Z,8.67
2023-11-15T17:30:26.636Z,5.40
2023-11-15T17:32:54.376Z,6.90
2023-11-15T17:35:22.443Z,5.70
2023-11-15T17:37:51.753Z,4.90
2023-11-15T17:40:20.787Z,4.03
2023-11-15T17:42:48.651Z,4.07
2023-11-15T17:45:19.723Z,4.23
2023-11-15T17:47:47.690Z,4.20
2023-11-15T17:50:15.408Z,5.30
2023-11-15T17:52:44.547Z,4.00
2023-11-15T17:55:15.097Z,3.40
2023-11-15T17:57:44.649Z,4.20
2023-11-15T18:00:14.047Z,3.13
2023-11-15T18:02:45.185Z,3.30
2023-11-15T18:05:13.805Z,3.10
2023-11-15T18:07:41.801Z,3.77
2023-11-15T18:10:10.248Z,3.37
2023-11-15T18:12:38.999Z,3.40
2023-11-15T18:15:07.736Z,3.67
2023-11-15T18:17:36.671Z,3.10
2023-11-15T18:20:08.976Z,3.43
2023-11-15T18:22:36.499Z,2.97
2023-11-15T18:25:05.370Z,3.30
2023-11-15T18:27:33.820Z,3.20
2023-11-15T18:30:03.480Z,3.07
2023-11-15T18:32:31.220Z,3.00
2023-11-15T18:34:59.205Z,8.40
2023-11-15T18:37:28.277Z,5.70
2023-11-15T18:39:56.004Z,3.30
2023-11-15T18:42:23.610Z,2.90
2023-11-15T18:44:54.041Z,3.50
2023-11-15T18:47:21.774Z,2.90
2023-11-15T18:49:50.101Z,3.57
2023-11-15T18:52:18.359Z,3.67
2023-11-15T18:54:47.941Z,3.40
2023-11-15T18:57:16.989Z,6.87
2023-11-15T18:59:44.810Z,8.00
2023-11-15T19:02:12.775Z,4.50
2023-11-15T19:04:40.525Z,3.60
2023-11-15T19:07:08.555Z,3.23
2023-11-15T19:09:37.749Z,3.10
2023-11-15T19:12:07.775Z,3.30
2023-11-15T19:14:37.358Z,2.70
2023-11-15T19:17:07.417Z,2.90
2023-11-15T19:19:36.522Z,3.53
2023-11-15T19:22:04.368Z,3.30
2023-11-15T19:24:32.103Z,3.43
2023-11-15T19:26:59.787Z,3.43
2023-11-15T19:29:29.160Z,3.17
2023-11-15T19:31:57.434Z,2.83
2023-11-15T19:34:26.720Z,3.20
2023-11-15T19:36:54.793Z,2.80
2023-11-15T19:39:22.712Z,2.60
2023-11-15T19:41:51.486Z,3.23
2023-11-15T19:44:19.296Z,3.07
2023-11-15T19:46:48.543Z,2.93
2023-11-15T19:49:18.933Z,3.20
2023-11-15T19:51:50.329Z,3.40
2023-11-15T19:54:19.151Z,3.20
2023-11-15T19:56:46.935Z,2.70
2023-11-15T19:59:14.634Z,3.40
2023-11-15T20:01:42.732Z,2.97
2023-11-15T20:04:12.025Z,2.60
2023-11-15T20:06:39.859Z,3.27
2023-11-15T20:09:07.678Z,2.43
2023-11-15T20:11:35.388Z,3.40
2023-11-15T20:14:03.224Z,3.73
2023-11-15T20:16:30.976Z,3.57
2023-11-15T20:18:59.152Z,3.70
2023-11-15T20:21:28.980Z,3.10
2023-11-15T20:23:56.990Z,3.20
2023-11-15T20:26:24.888Z,3.00
2023-11-15T20:28:53.453Z,2.80
2023-11-15T20:31:22.365Z,3.37
2023-11-15T20:33:50.430Z,2.60
2023-11-15T20:36:18.165Z,2.90
2023-11-15T20:38:47.241Z,2.67
2023-11-15T20:41:15.710Z,2.73
2023-11-15T20:43:43.399Z,2.73
2023-11-15T20:46:17.604Z,2.63
2023-11-15T20:48:47.693Z,2.40
2023-11-15T20:51:15.793Z,2.40
2023-11-15T20:53:43.711Z,2.80
2023-11-15T20:56:12.884Z,2.60
2023-11-15T20:58:41.403Z,2.40
2023-11-15T21:01:10.197Z,2.63
2023-11-15T21:03:38.165Z,2.70
2023-11-15T21:06:06.528Z,2.50
2023-11-15T21:08:35.940Z,2.20
2023-11-15T21:11:03.635Z,2.40
2023-11-15T21:13:32.767Z,2.43
2023-11-15T21:16:03.107Z,2.40
2023-11-15T21:18:30.855Z,2.40
2023-11-15T21:20:58.439Z,2.57
2023-11-15T21:23:26.588Z,2.53
2023-11-15T21:25:54.281Z,3.43
2023-11-15T21:28:22.209Z,2.33
2023-11-15T21:30:51.713Z,2.53
2023-11-15T21:33:19.441Z,2.60
2023-11-15T21:35:48.912Z,3.00
2023-11-15T21:38:18.916Z,2.60
2023-11-15T21:40:46.521Z,2.30
2023-11-15T21:43:14.142Z,2.80
2023-11-15T21:45:41.728Z,2.63
2023-11-15T21:48:11.646Z,2.60
2023-11-15T21:50:39.351Z,2.73
2023-11-15T21:53:07.961Z,2.77
2023-11-15T21:55:35.659Z,3.30
2023-11-15T21:58:07.900Z,2.57
2023-11-15T22:00:35.587Z,2.73
2023-11-15T22:03:03.576Z,2.57
2023-11-15T22:05:32.709Z,2.50
2023-11-15T22:08:00.950Z,3.03
2023-11-15T22:10:28.611Z,2.77
2023-11-15T22:12:56.218Z,2.70
2023-11-15T22:15:24.389Z,2.97
2023-11-15T22:17:52.138Z,2.80
2023-11-15T22:20:19.990Z,2.80
2023-11-15T22:22:49.175Z,2.67
2023-11-15T22:25:16.994Z,2.60
2023-11-15T22:27:44.606Z,2.73
2023-11-15T22:30:12.926Z,2.60
2023-11-15T22:32:41.132Z,3.00
2023-11-15T22:35:10.581Z,3.17
2023-11-15T22:37:38.296Z,2.90
2023-11-15T22:40:08.141Z,2.90
2023-11-15T22:42:36.339Z,2.50
2023-11-15T22:45:04.190Z,2.73
2023-11-15T22:47:31.878Z,3.10
2023-11-15T22:49:59.541Z,3.87
2023-11-15T22:52:27.278Z,2.83
2023-11-15T22:54:54.881Z,2.77
2023-11-15T22:57:23.995Z,2.50
2023-11-15T22:59:52.706Z,2.70
2023-11-15T23:02:21.186Z,2.63
2023-11-15T23:04:49.321Z,2.67
2023-11-15T23:07:21.400Z,2.80
2023-11-15T23:09:49.236Z,2.67
2023-11-15T23:12:17.097Z,2.40
2023-11-15T23:14:46.486Z,2.40
2023-11-15T23:17:14.171Z,2.43
2023-11-15T23:19:41.825Z,2.73
2023-11-15T23:22:09.648Z,3.27
2023-11-15T23:24:38.007Z,2.60
2023-11-15T23:27:06.181Z,2.80
2023-11-15T23:29:34.097Z,2.73
2023-11-15T23:32:03.167Z,2.47
2023-11-15T23:34:31.000Z,2.90
2023-11-15T23:36:58.620Z,2.70
2023-11-15T23:39:27.809Z,2.40
2023-11-15T23:41:55.557Z,2.80
2023-11-15T23:44:23.226Z,2.57
2023-11-15T23:46:52.584Z,2.80
2023-11-15T23:49:22.165Z,3.00
2023-11-15T23:51:49.850Z,3.10
2023-11-15T23:54:18.362Z,3.13
2023-11-15T23:56:46.005Z,2.87
2023-11-15T23:59:13.736Z,3.30
